Authier, Canada
Current Conditions -  °F | °C
As of 4:00 PM on Friday 24 Oct 2014 (Local Time) from CYUY Reporting Station
Scattered Clouds Scattered Clouds  
Wind Chill: 54°   Ceiling: Unl
Heat Index: 54°   Visibility: 15mi
Dew Point: 34°   Wind: 6mph
Humidity: 47%   Direction: 260°W
Pressure: 29.85"   Gusts: NA
Location:  48.72°N, 78.87°W
Report Text: CYUY 242000Z 26005KT 15SM FEW160 SCT240 12/01 A2985 RMK AC1CI2 SLP121
Loading
Personal Weather Stations






























Interactive Weather Map
Tropical Storm Tracking
New forecast layout! Learn more

10-Day Weather Forecast

Advertisements
Track Severe Weather on mobile